sensor_id;sensor_type;location;lat;lon;timestamp;pressure;altitude;pressure_sealevel;temperature;humidity
15487;BME280;7845;53.698;10.078;2022-08-19T00:01:12;100872.53;;;26.60;100.00
15487;BME280;7845;53.698;10.078;2022-08-19T00:03:37;100859.88;;;26.62;100.00
15487;BME280;7845;53.698;10.078;2022-08-19T00:06:03;100858.91;;;26.63;100.00
15487;BME280;7845;53.698;10.078;2022-08-19T00:08:28;100861.31;;;26.55;100.00
15487;BME280;7845;53.698;10.078;2022-08-19T00:10:53;100855.66;;;26.34;100.00
15487;BME280;7845;53.698;10.078;2022-08-19T00:13:19;100857.41;;;26.10;100.00
15487;BME280;7845;53.698;10.078;2022-08-19T00:15:44;100853.22;;;26.06;100.00
15487;BME280;7845;53.698;10.078;2022-08-19T00:18:09;100831.50;;;25.98;100.00
15487;BME280;7845;53.698;10.078;2022-08-19T00:20:35;100824.84;;;26.04;100.00
15487;BME280;7845;53.698;10.078;2022-08-19T00:23:00;100826.22;;;26.09;100.00
15487;BME280;7845;53.698;10.078;2022-08-19T00:25:25;100830.44;;;26.01;100.00
15487;BME280;7845;53.698;10.078;2022-08-19T00:27:51;100839.63;;;26.09;100.00
15487;BME280;7845;53.698;10.078;2022-08-19T00:30:16;100837.38;;;26.03;100.00
15487;BME280;7845;53.698;10.078;2022-08-19T00:32:42;100831.38;;;26.12;100.00
15487;BME280;7845;53.698;10.078;2022-08-19T00:35:08;100833.91;;;26.14;100.00
15487;BME280;7845;53.698;10.078;2022-08-19T00:37:34;100830.44;;;26.01;100.00
15487;BME280;7845;53.698;10.078;2022-08-19T00:40:00;100834.72;;;26.16;100.00
15487;BME280;7845;53.698;10.078;2022-08-19T00:42:26;100831.59;;;26.22;100.00
15487;BME280;7845;53.698;10.078;2022-08-19T00:44:53;100825.06;;;26.13;100.00
15487;BME280;7845;53.698;10.078;2022-08-19T00:47:19;100834.06;;;26.00;100.00
15487;BME280;7845;53.698;10.078;2022-08-19T00:49:50;100835.56;;;25.78;100.00
15487;BME280;7845;53.698;10.078;2022-08-19T00:52:27;100843.81;;;25.36;100.00
15487;BME280;7845;53.698;10.078;2022-08-19T00:54:55;100840.34;;;25.48;100.00
15487;BME280;7845;53.698;10.078;2022-08-19T00:57:25;100831.91;;;25.54;100.00
15487;BME280;7845;53.698;10.078;2022-08-19T00:59:54;100832.72;;;25.42;100.00
15487;BME280;7845;53.698;10.078;2022-08-19T01:02:23;100831.66;;;25.32;100.00
15487;BME280;7845;53.698;10.078;2022-08-19T01:04:48;100832.75;;;25.15;100.00
15487;BME280;7845;53.698;10.078;2022-08-19T01:07:14;100829.72;;;25.34;100.00
15487;BME280;7845;53.698;10.078;2022-08-19T01:09:40;100838.16;;;25.28;100.00
15487;BME280;7845;53.698;10.078;2022-08-19T01:12:05;100836.97;;;25.19;100.00
15487;BME280;7845;53.698;10.078;2022-08-19T01:14:32;100839.72;;;25.18;100.00
15487;BME280;7845;53.698;10.078;2022-08-19T01:16:58;100838.47;;;25.23;100.00
15487;BME280;7845;53.698;10.078;2022-08-19T01:19:35;100833.75;;;25.27;100.00
15487;BME280;7845;53.698;10.078;2022-08-19T01:22:06;100830.38;;;25.38;100.00
15487;BME280;7845;53.698;10.078;2022-08-19T01:24:33;100823.41;;;25.48;100.00
15487;BME280;7845;53.698;10.078;2022-08-19T01:26:59;100814.97;;;25.28;100.00
15487;BME280;7845;53.698;10.078;2022-08-19T01:29:24;100819.31;;;25.17;100.00
15487;BME280;7845;53.698;10.078;2022-08-19T01:31:49;100817.22;;;25.35;100.00
15487;BME280;7845;53.698;10.078;2022-08-19T01:34:18;100819.47;;;25.41;100.00
15487;BME280;7845;53.698;10.078;2022-08-19T01:36:45;100825.88;;;25.38;100.00
15487;BME280;7845;53.698;10.078;2022-08-19T01:39:18;100822.19;;;25.53;100.00
15487;BME280;7845;53.698;10.078;2022-08-19T01:41:44;100818.00;;;25.49;100.00
15487;BME280;7845;53.698;10.078;2022-08-19T01:44:10;100818.69;;;25.26;100.00
15487;BME280;7845;53.698;10.078;2022-08-19T01:46:36;100812.72;;;25.48;100.00
15487;BME280;7845;53.698;10.078;2022-08-19T01:49:03;100811.97;;;25.33;100.00
15487;BME280;7845;53.698;10.078;2022-08-19T01:51:29;100811.66;;;25.38;100.00
15487;BME280;7845;53.698;10.078;2022-08-19T01:53:56;100806.81;;;25.30;100.00
15487;BME280;7845;53.698;10.078;2022-08-19T01:56:22;100812.28;;;25.28;100.00
15487;BME280;7845;53.698;10.078;2022-08-19T01:58:56;100807.53;;;25.07;100.00
15487;BME280;7845;53.698;10.078;2022-08-19T02:01:21;100810.91;;;24.69;100.00
15487;BME280;7845;53.698;10.078;2022-08-19T02:03:47;100813.56;;;24.84;100.00
15487;BME280;7845;53.698;10.078;2022-08-19T02:06:13;100817.16;;;24.83;100.00
15487;BME280;7845;53.698;10.078;2022-08-19T02:08:40;100804.97;;;25.05;100.00
15487;BME280;7845;53.698;10.078;2022-08-19T02:11:06;100801.59;;;24.89;100.00
15487;BME280;7845;53.698;10.078;2022-08-19T02:13:33;100807.34;;;25.22;100.00
15487;BME280;7845;53.698;10.078;2022-08-19T02:15:58;100812.63;;;24.97;100.00
15487;BME280;7845;53.698;10.078;2022-08-19T02:18:24;100815.22;;;24.99;100.00
15487;BME280;7845;53.698;10.078;2022-08-19T02:20:49;100815.91;;;24.88;100.00
15487;BME280;7845;53.698;10.078;2022-08-19T02:23:16;100814.78;;;24.78;100.00
15487;BME280;7845;53.698;10.078;2022-08-19T02:25:46;100813.50;;;24.57;100.00
15487;BME280;7845;53.698;10.078;2022-08-19T02:28:13;100797.56;;;24.69;100.00
15487;BME280;7845;53.698;10.078;2022-08-19T02:30:40;100793.91;;;24.97;100.00
15487;BME280;7845;53.698;10.078;2022-08-19T02:33:06;100801.25;;;24.81;100.00
15487;BME280;7845;53.698;10.078;2022-08-19T02:35:31;100797.66;;;24.68;100.00
15487;BME280;7845;53.698;10.078;2022-08-19T02:37:57;100793.66;;;24.34;100.00
15487;BME280;7845;53.698;10.078;2022-08-19T02:40:48;100788.69;;;24.42;100.00
15487;BME280;7845;53.698;10.078;2022-08-19T02:43:15;100795.78;;;24.56;100.00
15487;BME280;7845;53.698;10.078;2022-08-19T02:45:40;100798.31;;;24.71;100.00
15487;BME280;7845;53.698;10.078;2022-08-19T02:48:06;100801.16;;;24.83;100.00
15487;BME280;7845;53.698;10.078;2022-08-19T02:50:37;100808.88;;;24.73;100.00
15487;BME280;7845;53.698;10.078;2022-08-19T02:53:03;100814.44;;;24.70;100.00
15487;BME280;7845;53.698;10.078;2022-08-19T02:55:28;100810.69;;;24.87;100.00
15487;BME280;7845;53.698;10.078;2022-08-19T02:57:54;100798.06;;;24.89;100.00
15487;BME280;7845;53.698;10.078;2022-08-19T03:00:19;100787.72;;;24.84;100.00
15487;BME280;7845;53.698;10.078;2022-08-19T03:02:44;100787.53;;;25.00;100.00
15487;BME280;7845;53.698;10.078;2022-08-19T03:05:11;100786.31;;;24.91;100.00
15487;BME280;7845;53.698;10.078;2022-08-19T03:07:37;100789.66;;;24.95;100.00
15487;BME280;7845;53.698;10.078;2022-08-19T03:10:03;100792.53;;;24.92;100.00
15487;BME280;7845;53.698;10.078;2022-08-19T03:12:29;100801.13;;;25.09;100.00
15487;BME280;7845;53.698;10.078;2022-08-19T03:14:54;100795.03;;;25.07;100.00
15487;BME280;7845;53.698;10.078;2022-08-19T03:17:20;100795.84;;;24.95;100.00
15487;BME280;7845;53.698;10.078;2022-08-19T03:19:45;100792.13;;;24.98;100.00
15487;BME280;7845;53.698;10.078;2022-08-19T03:22:11;100787.38;;;24.89;100.00
15487;BME280;7845;53.698;10.078;2022-08-19T03:24:37;100795.31;;;24.90;100.00
15487;BME280;7845;53.698;10.078;2022-08-19T03:27:03;100791.00;;;25.14;100.00
15487;BME280;7845;53.698;10.078;2022-08-19T03:29:30;100790.53;;;25.08;100.00
15487;BME280;7845;53.698;10.078;2022-08-19T03:32:00;100787.53;;;25.00;100.00
15487;BME280;7845;53.698;10.078;2022-08-19T03:34:29;100786.06;;;25.08;100.00
15487;BME280;7845;53.698;10.078;2022-08-19T03:36:57;100794.78;;;24.71;100.00
15487;BME280;7845;53.698;10.078;2022-08-19T03:39:24;100795.06;;;24.81;100.00
15487;BME280;7845;53.698;10.078;2022-08-19T03:41:53;100812.81;;;24.67;100.00
15487;BME280;7845;53.698;10.078;2022-08-19T03:44:22;100816.25;;;24.69;100.00
15487;BME280;7845;53.698;10.078;2022-08-19T03:46:56;100817.84;;;24.72;100.00
15487;BME280;7845;53.698;10.078;2022-08-19T03:49:24;100825.19;;;24.83;100.00
15487;BME280;7845;53.698;10.078;2022-08-19T03:51:50;100830.63;;;24.81;100.00
15487;BME280;7845;53.698;10.078;2022-08-19T03:54:18;100827.25;;;24.92;100.00
15487;BME280;7845;53.698;10.078;2022-08-19T03:56:45;100832.75;;;25.03;100.00
15487;BME280;7845;53.698;10.078;2022-08-19T03:59:18;100838.16;;;24.74;100.00
15487;BME280;7845;53.698;10.078;2022-08-19T04:01:44;100833.28;;;25.08;100.00
15487;BME280;7845;53.698;10.078;2022-08-19T04:04:09;100835.56;;;25.14;100.00
15487;BME280;7845;53.698;10.078;2022-08-19T04:06:37;100843.03;;;25.21;100.00
15487;BME280;7845;53.698;10.078;2022-08-19T04:09:07;100845.59;;;25.10;100.00
15487;BME280;7845;53.698;10.078;2022-08-19T04:11:40;100849.50;;;25.31;100.00
15487;BME280;7845;53.698;10.078;2022-08-19T04:14:13;100845.00;;;25.32;100.00
15487;BME280;7845;53.698;10.078;2022-08-19T04:16:39;100849.69;;;25.28;100.00
15487;BME280;7845;53.698;10.078;2022-08-19T04:19:04;100841.84;;;25.13;100.00
15487;BME280;7845;53.698;10.078;2022-08-19T04:21:30;100842.09;;;25.22;100.00
15487;BME280;7845;53.698;10.078;2022-08-19T04:23:56;100858.41;;;25.18;100.00
15487;BME280;7845;53.698;10.078;2022-08-19T04:26:28;100863.69;;;25.19;100.00
15487;BME280;7845;53.698;10.078;2022-08-19T04:28:58;100854.22;;;25.41;100.00
15487;BME280;7845;53.698;10.078;2022-08-19T04:31:27;100859.72;;;25.25;100.00
15487;BME280;7845;53.698;10.078;2022-08-19T04:33:54;100857.06;;;25.25;100.00
15487;BME280;7845;53.698;10.078;2022-08-19T04:36:24;100856.97;;;25.26;100.00
15487;BME280;7845;53.698;10.078;2022-08-19T04:38:53;100856.47;;;25.07;100.00
15487;BME280;7845;53.698;10.078;2022-08-19T04:41:19;100853.78;;;25.34;100.00
15487;BME280;7845;53.698;10.078;2022-08-19T04:44:03;100862.41;;;25.25;100.00
15487;BME280;7845;53.698;10.078;2022-08-19T04:46:29;100860.78;;;25.49;100.00
15487;BME280;7845;53.698;10.078;2022-08-19T04:49:01;100855.63;;;25.46;100.00
15487;BME280;7845;53.698;10.078;2022-08-19T04:51:27;100866.03;;;25.24;100.00
15487;BME280;7845;53.698;10.078;2022-08-19T04:53:52;100864.16;;;25.12;100.00
15487;BME280;7845;53.698;10.078;2022-08-19T04:56:19;100861.78;;;25.34;100.00
15487;BME280;7845;53.698;10.078;2022-08-19T04:58:47;100864.13;;;25.26;100.00
15487;BME280;7845;53.698;10.078;2022-08-19T05:01:22;100871.38;;;25.24;100.00
15487;BME280;7845;53.698;10.078;2022-08-19T05:03:48;100883.44;;;24.90;100.00
15487;BME280;7845;53.698;10.078;2022-08-19T05:06:15;100876.25;;;25.05;100.00
15487;BME280;7845;53.698;10.078;2022-08-19T05:08:42;100866.00;;;24.70;100.00
15487;BME280;7845;53.698;10.078;2022-08-19T05:11:20;100874.47;;;24.77;100.00
15487;BME280;7845;53.698;10.078;2022-08-19T05:13:47;100886.06;;;24.63;100.00
15487;BME280;7845;53.698;10.078;2022-08-19T05:16:15;100885.88;;;24.66;100.00
15487;BME280;7845;53.698;10.078;2022-08-19T05:18:41;100891.75;;;24.86;100.00
15487;BME280;7845;53.698;10.078;2022-08-19T05:21:27;100890.94;;;24.98;100.00
15487;BME280;7845;53.698;10.078;2022-08-19T05:24:17;100893.75;;;24.96;100.00
15487;BME280;7845;53.698;10.078;2022-08-19T05:26:45;100888.53;;;25.34;100.00
15487;BME280;7845;53.698;10.078;2022-08-19T05:29:13;100882.47;;;25.45;100.00
15487;BME280;7845;53.698;10.078;2022-08-19T05:31:39;100888.44;;;25.36;100.00
15487;BME280;7845;53.698;10.078;2022-08-19T05:34:05;100889.38;;;25.35;100.00
15487;BME280;7845;53.698;10.078;2022-08-19T05:36:42;100898.13;;;25.37;100.00
15487;BME280;7845;53.698;10.078;2022-08-19T05:39:14;100894.72;;;25.35;100.00
15487;BME280;7845;53.698;10.078;2022-08-19T05:41:48;100891.50;;;25.29;100.00
15487;BME280;7845;53.698;10.078;2022-08-19T05:44:15;100891.59;;;25.28;100.00
15487;BME280;7845;53.698;10.078;2022-08-19T05:46:43;100890.97;;;25.37;100.00
15487;BME280;7845;53.698;10.078;2022-08-19T05:49:09;100875.81;;;25.38;100.00
15487;BME280;7845;53.698;10.078;2022-08-19T05:51:35;100876.91;;;25.21;100.00
15487;BME280;7845;53.698;10.078;2022-08-19T05:54:03;100866.47;;;25.30;100.00
15487;BME280;7845;53.698;10.078;2022-08-19T05:56:29;100869.94;;;25.33;100.00
15487;BME280;7845;53.698;10.078;2022-08-19T05:58:57;100872.44;;;25.21;100.00
15487;BME280;7845;53.698;10.078;2022-08-19T06:01:24;100862.75;;;25.33;100.00
15487;BME280;7845;53.698;10.078;2022-08-19T06:03:50;100874.66;;;25.42;100.00
15487;BME280;7845;53.698;10.078;2022-08-19T06:06:16;100873.09;;;25.52;100.00
15487;BME280;7845;53.698;10.078;2022-08-19T06:08:42;100878.56;;;25.50;100.00
15487;BME280;7845;53.698;10.078;2022-08-19T06:13:45;100874.09;;;25.37;100.00
15487;BME280;7845;53.698;10.078;2022-08-19T06:16:15;100875.75;;;25.52;100.00
15487;BME280;7845;53.698;10.078;2022-08-19T06:18:55;100874.16;;;25.49;100.00
15487;BME280;7845;53.698;10.078;2022-08-19T06:21:24;100877.13;;;25.45;100.00
15487;BME280;7845;53.698;10.078;2022-08-19T06:23:53;100875.47;;;25.29;100.00
15487;BME280;7845;53.698;10.078;2022-08-19T06:26:19;100881.59;;;25.44;100.00
15487;BME280;7845;53.698;10.078;2022-08-19T06:28:47;100878.22;;;25.55;100.00
15487;BME280;7845;53.698;10.078;2022-08-19T06:31:15;100885.81;;;25.61;100.00
15487;BME280;7845;53.698;10.078;2022-08-19T06:33:42;100880.78;;;25.69;100.00
15487;BME280;7845;53.698;10.078;2022-08-19T06:39:14;100879.53;;;25.62;100.00
15487;BME280;7845;53.698;10.078;2022-08-19T06:41:44;100877.16;;;25.70;100.00
15487;BME280;7845;53.698;10.078;2022-08-19T06:44:10;100877.91;;;25.59;100.00
15487;BME280;7845;53.698;10.078;2022-08-19T06:46:37;100878.06;;;25.83;100.00
15487;BME280;7845;53.698;10.078;2022-08-19T06:49:03;100867.75;;;25.90;100.00
15487;BME280;7845;53.698;10.078;2022-08-19T06:51:29;100871.09;;;25.80;100.00
15487;BME280;7845;53.698;10.078;2022-08-19T06:53:56;100866.28;;;25.85;100.00
15487;BME280;7845;53.698;10.078;2022-08-19T06:56:25;100874.19;;;25.87;100.00
15487;BME280;7845;53.698;10.078;2022-08-19T06:58:56;100868.19;;;25.58;100.00
15487;BME280;7845;53.698;10.078;2022-08-19T07:01:22;100870.13;;;25.81;100.00
15487;BME280;7845;53.698;10.078;2022-08-19T07:03:47;100872.81;;;25.94;100.00
15487;BME280;7845;53.698;10.078;2022-08-19T07:06:16;100879.22;;;26.04;100.00
15487;BME280;7845;53.698;10.078;2022-08-19T07:08:45;100879.09;;;26.06;100.00
15487;BME280;7845;53.698;10.078;2022-08-19T07:11:14;100881.25;;;26.13;100.00
15487;BME280;7845;53.698;10.078;2022-08-19T07:13:40;100890.66;;;25.68;100.00
15487;BME280;7845;53.698;10.078;2022-08-19T07:16:10;100891.78;;;25.52;100.00
15487;BME280;7845;53.698;10.078;2022-08-19T07:18:36;100888.94;;;25.28;100.00
15487;BME280;7845;53.698;10.078;2022-08-19T07:21:08;100891.25;;;25.20;100.00
15487;BME280;7845;53.698;10.078;2022-08-19T07:23:34;100882.66;;;25.42;100.00
15487;BME280;7845;53.698;10.078;2022-08-19T07:26:29;100882.16;;;25.49;100.00
15487;BME280;7845;53.698;10.078;2022-08-19T07:28:55;100878.13;;;25.56;100.00
15487;BME280;7845;53.698;10.078;2022-08-19T07:31:23;100881.00;;;25.66;100.00
15487;BME280;7845;53.698;10.078;2022-08-19T07:33:51;100887.16;;;25.80;100.00
15487;BME280;7845;53.698;10.078;2022-08-19T07:36:21;100893.34;;;25.81;100.00
15487;BME280;7845;53.698;10.078;2022-08-19T07:38:49;100892.81;;;25.76;100.00
15487;BME280;7845;53.698;10.078;2022-08-19T07:41:20;100900.56;;;25.54;100.00
15487;BME280;7845;53.698;10.078;2022-08-19T07:43:47;100909.81;;;25.75;100.00
15487;BME280;7845;53.698;10.078;2022-08-19T07:46:13;100904.97;;;25.55;100.00
15487;BME280;7845;53.698;10.078;2022-08-19T07:48:42;100905.72;;;25.69;100.00
15487;BME280;7845;53.698;10.078;2022-08-19T07:51:10;100909.53;;;25.92;100.00
15487;BME280;7845;53.698;10.078;2022-08-19T07:53:37;100922.81;;;25.54;100.00
15487;BME280;7845;53.698;10.078;2022-08-19T07:56:04;100916.34;;;25.44;100.00
15487;BME280;7845;53.698;10.078;2022-08-19T07:58:32;100913.38;;;26.01;100.00
15487;BME280;7845;53.698;10.078;2022-08-19T08:00:59;100908.03;;;26.13;100.00
15487;BME280;7845;53.698;10.078;2022-08-19T08:03:24;100918.28;;;26.45;100.00
15487;BME280;7845;53.698;10.078;2022-08-19T08:06:11;100915.31;;;26.49;100.00
15487;BME280;7845;53.698;10.078;2022-08-19T08:08:56;100919.03;;;26.47;100.00
15487;BME280;7845;53.698;10.078;2022-08-19T08:11:38;100914.53;;;26.47;100.00
15487;BME280;7845;53.698;10.078;2022-08-19T08:14:04;100915.91;;;26.65;100.00
15487;BME280;7845;53.698;10.078;2022-08-19T08:16:33;100920.44;;;26.52;100.00
15487;BME280;7845;53.698;10.078;2022-08-19T08:18:58;100927.47;;;26.66;100.00
15487;BME280;7845;53.698;10.078;2022-08-19T08:21:24;100923.72;;;26.68;100.00
15487;BME280;7845;53.698;10.078;2022-08-19T08:23:49;100938.47;;;26.25;100.00
15487;BME280;7845;53.698;10.078;2022-08-19T08:26:16;100930.53;;;26.36;100.00
15487;BME280;7845;53.698;10.078;2022-08-19T08:28:42;100939.63;;;26.33;100.00
15487;BME280;7845;53.698;10.078;2022-08-19T08:31:07;100942.38;;;26.57;100.00
15487;BME280;7845;53.698;10.078;2022-08-19T08:33:32;100943.13;;;26.47;100.00
15487;BME280;7845;53.698;10.078;2022-08-19T08:35:58;100937.88;;;26.58;100.00
15487;BME280;7845;53.698;10.078;2022-08-19T08:38:23;100937.97;;;26.81;100.00
15487;BME280;7845;53.698;10.078;2022-08-19T08:40:52;100940.66;;;26.56;100.00
15487;BME280;7845;53.698;10.078;2022-08-19T08:43:27;100939.25;;;26.76;100.00
15487;BME280;7845;53.698;10.078;2022-08-19T08:46:58;100938.41;;;26.63;100.00
15487;BME280;7845;53.698;10.078;2022-08-19T08:49:00;100945.50;;;26.51;100.00
15487;BME280;7845;53.698;10.078;2022-08-19T08:51:32;100945.59;;;26.50;100.00
15487;BME280;7845;53.698;10.078;2022-08-19T08:53:59;100941.88;;;26.52;100.00
15487;BME280;7845;53.698;10.078;2022-08-19T08:56:25;100952.38;;;26.43;100.00
15487;BME280;7845;53.698;10.078;2022-08-19T08:58:59;100943.56;;;26.53;100.00
15487;BME280;7845;53.698;10.078;2022-08-19T09:01:27;100942.25;;;26.71;100.00
15487;BME280;7845;53.698;10.078;2022-08-19T09:03:52;100942.97;;;26.73;100.00
15487;BME280;7845;53.698;10.078;2022-08-19T09:06:40;100943.63;;;26.89;100.00
15487;BME280;7845;53.698;10.078;2022-08-19T09:09:30;100941.81;;;26.77;100.00
15487;BME280;7845;53.698;10.078;2022-08-19T09:14:50;100955.22;;;26.65;100.00
15487;BME280;7845;53.698;10.078;2022-08-19T09:17:23;100938.25;;;26.89;100.00
15487;BME280;7845;53.698;10.078;2022-08-19T09:19:56;100946.72;;;26.96;100.00
15487;BME280;7845;53.698;10.078;2022-08-19T09:22:22;100949.84;;;26.77;100.00
15487;BME280;7845;53.698;10.078;2022-08-19T09:24:50;100956.34;;;26.37;100.00
15487;BME280;7845;53.698;10.078;2022-08-19T09:27:18;100956.84;;;26.55;100.00
15487;BME280;7845;53.698;10.078;2022-08-19T09:29:43;100950.72;;;26.65;100.00
15487;BME280;7845;53.698;10.078;2022-08-19T09:32:09;100954.34;;;26.64;100.00
15487;BME280;7845;53.698;10.078;2022-08-19T09:34:34;100967.66;;;26.40;100.00
15487;BME280;7845;53.698;10.078;2022-08-19T09:36:59;100958.09;;;26.74;100.00
15487;BME280;7845;53.698;10.078;2022-08-19T09:39:25;100950.50;;;26.68;100.00
15487;BME280;7845;53.698;10.078;2022-08-19T09:41:51;100956.84;;;26.55;100.00
15487;BME280;7845;53.698;10.078;2022-08-19T09:44:18;100944.72;;;26.62;100.00
15487;BME280;7845;53.698;10.078;2022-08-19T09:46:45;100945.41;;;27.02;100.00
15487;BME280;7845;53.698;10.078;2022-08-19T09:49:12;100939.69;;;27.06;100.00
15487;BME280;7845;53.698;10.078;2022-08-19T09:51:37;100940.94;;;26.89;100.00
15487;BME280;7845;53.698;10.078;2022-08-19T09:54:03;100941.53;;;26.57;100.00
15487;BME280;7845;53.698;10.078;2022-08-19T09:56:29;100929.25;;;26.78;100.00
15487;BME280;7845;53.698;10.078;2022-08-19T09:58:57;100944.34;;;26.91;100.00
15487;BME280;7845;53.698;10.078;2022-08-19T10:01:26;100938.91;;;26.93;100.00
15487;BME280;7845;53.698;10.078;2022-08-19T10:03:53;100929.16;;;27.39;100.00
15487;BME280;7845;53.698;10.078;2022-08-19T10:06:22;100934.91;;;26.99;100.00
15487;BME280;7845;53.698;10.078;2022-08-19T10:08:47;100936.69;;;27.11;100.00
15487;BME280;7845;53.698;10.078;2022-08-19T10:11:13;100922.78;;;27.29;100.00
15487;BME280;7845;53.698;10.078;2022-08-19T10:13:42;100923.28;;;27.58;100.00
15487;BME280;7845;53.698;10.078;2022-08-19T10:16:10;100913.91;;;27.98;100.00
15487;BME280;7845;53.698;10.078;2022-08-19T10:18:36;100914.31;;;28.27;100.00
15487;BME280;7845;53.698;10.078;2022-08-19T10:23:44;100931.88;;;28.09;100.00
15487;BME280;7845;53.698;10.078;2022-08-19T10:26:12;100936.19;;;27.99;100.00
15487;BME280;7845;53.698;10.078;2022-08-19T10:28:37;100924.19;;;28.16;100.00
15487;BME280;7845;53.698;10.078;2022-08-19T10:31:09;100932.69;;;27.98;100.00
15487;BME280;7845;53.698;10.078;2022-08-19T10:33:36;100939.16;;;27.61;100.00
15487;BME280;7845;53.698;10.078;2022-08-19T10:36:04;100939.53;;;26.97;100.00
15487;BME280;7845;53.698;10.078;2022-08-19T10:38:30;100931.84;;;27.16;100.00
15487;BME280;7845;53.698;10.078;2022-08-19T10:40:57;100947.97;;;27.03;100.00
15487;BME280;7845;53.698;10.078;2022-08-19T10:43:22;100930.44;;;27.46;100.00
15487;BME280;7845;53.698;10.078;2022-08-19T10:45:54;100925.03;;;27.70;100.00
15487;BME280;7845;53.698;10.078;2022-08-19T10:48:26;100931.09;;;27.61;100.00
15487;BME280;7845;53.698;10.078;2022-08-19T10:50:51;100929.28;;;27.62;100.00
15487;BME280;7845;53.698;10.078;2022-08-19T10:53:35;100926.47;;;27.39;100.00
15487;BME280;7845;53.698;10.078;2022-08-19T10:56:02;100926.69;;;27.36;100.00
15487;BME280;7845;53.698;10.078;2022-08-19T10:58:45;100923.53;;;27.55;100.00
15487;BME280;7845;53.698;10.078;2022-08-19T11:01:11;100923.00;;;27.26;100.00
15487;BME280;7845;53.698;10.078;2022-08-19T11:03:36;100914.78;;;27.64;100.00
15487;BME280;7845;53.698;10.078;2022-08-19T11:06:07;100918.72;;;27.71;100.00
15487;BME280;7845;53.698;10.078;2022-08-19T11:08:35;100913.69;;;27.67;100.00
15487;BME280;7845;53.698;10.078;2022-08-19T11:11:02;100922.34;;;27.70;100.00
15487;BME280;7845;53.698;10.078;2022-08-19T11:13:30;100916.44;;;27.89;100.00
15487;BME280;7845;53.698;10.078;2022-08-19T11:16:00;100920.91;;;27.77;100.00
15487;BME280;7845;53.698;10.078;2022-08-19T11:18:28;100914.00;;;27.86;100.00
15487;BME280;7845;53.698;10.078;2022-08-19T11:20:53;100918.72;;;27.82;100.00
15487;BME280;7845;53.698;10.078;2022-08-19T11:23:18;100925.34;;;27.07;100.00
15487;BME280;7845;53.698;10.078;2022-08-19T11:25:45;100924.66;;;27.40;100.00
15487;BME280;7845;53.698;10.078;2022-08-19T11:28:11;100923.75;;;27.28;100.00
15487;BME280;7845;53.698;10.078;2022-08-19T11:30:38;100933.03;;;26.88;100.00
15487;BME280;7845;53.698;10.078;2022-08-19T11:33:03;100936.91;;;27.44;100.00
15487;BME280;7845;53.698;10.078;2022-08-19T11:35:29;100937.56;;;27.11;100.00
15487;BME280;7845;53.698;10.078;2022-08-19T11:37:54;100930.44;;;27.23;100.00
15487;BME280;7845;53.698;10.078;2022-08-19T11:40:21;100927.56;;;27.61;100.00
15487;BME280;7845;53.698;10.078;2022-08-19T11:42:46;100932.06;;;27.95;100.00
15487;BME280;7845;53.698;10.078;2022-08-19T11:45:23;100920.50;;;28.06;100.00
15487;BME280;7845;53.698;10.078;2022-08-19T11:47:48;100914.31;;;28.27;100.00
15487;BME280;7845;53.698;10.078;2022-08-19T11:50:15;100914.44;;;28.48;100.00
15487;BME280;7845;53.698;10.078;2022-08-19T11:52:40;100903.94;;;28.45;100.00
15487;BME280;7845;53.698;10.078;2022-08-19T11:55:07;100906.88;;;28.31;100.00
15487;BME280;7845;53.698;10.078;2022-08-19T11:57:33;100909.41;;;28.43;100.00
15487;BME280;7845;53.698;10.078;2022-08-19T11:59:58;100905.16;;;28.74;100.00
15487;BME280;7845;53.698;10.078;2022-08-19T12:02:24;100902.84;;;29.13;100.00
15487;BME280;7845;53.698;10.078;2022-08-19T12:04:50;100896.56;;;29.34;100.00
15487;BME280;7845;53.698;10.078;2022-08-19T12:07:15;100895.75;;;29.54;100.00
15487;BME280;7845;53.698;10.078;2022-08-19T12:09:41;100911.13;;;28.55;100.00
15487;BME280;7845;53.698;10.078;2022-08-19T12:12:06;100908.25;;;29.24;100.00
15487;BME280;7845;53.698;10.078;2022-08-19T12:14:31;100896.59;;;29.55;100.00
15487;BME280;7845;53.698;10.078;2022-08-19T12:16:57;100899.28;;;29.55;100.00
15487;BME280;7845;53.698;10.078;2022-08-19T12:19:22;100902.03;;;29.44;100.00
15487;BME280;7845;53.698;10.078;2022-08-19T12:21:50;100913.50;;;29.14;100.00
15487;BME280;7845;53.698;10.078;2022-08-19T12:24:15;100912.13;;;29.31;100.00
15487;BME280;7845;53.698;10.078;2022-08-19T12:26:45;100910.41;;;28.42;100.00
15487;BME280;7845;53.698;10.078;2022-08-19T12:29:10;100911.75;;;28.81;100.00
15487;BME280;7845;53.698;10.078;2022-08-19T12:31:35;100905.22;;;28.95;100.00
15487;BME280;7845;53.698;10.078;2022-08-19T12:34:01;100915.53;;;29.22;100.00
15487;BME280;7845;53.698;10.078;2022-08-19T12:36:27;100901.34;;;29.31;100.00
15487;BME280;7845;53.698;10.078;2022-08-19T12:38:53;100903.66;;;28.92;100.00
15487;BME280;7845;53.698;10.078;2022-08-19T12:41:20;100910.16;;;29.22;100.00
15487;BME280;7845;53.698;10.078;2022-08-19T12:43:47;100904.78;;;29.33;100.00
15487;BME280;7845;53.698;10.078;2022-08-19T12:46:14;100891.84;;;29.27;100.00
15487;BME280;7845;53.698;10.078;2022-08-19T12:48:39;100907.00;;;28.85;100.00
15487;BME280;7845;53.698;10.078;2022-08-19T12:51:13;100904.66;;;28.14;100.00
15487;BME280;7845;53.698;10.078;2022-08-19T12:53:40;100899.28;;;28.14;100.00
15487;BME280;7845;53.698;10.078;2022-08-19T12:56:06;100902.97;;;28.46;100.00